createdAt,value
2017-12-15T00:00:40.777Z,4.10
2017-12-15T00:03:07.202Z,4.20
2017-12-15T00:05:33.500Z,4.10
2017-12-15T00:08:00.533Z,4.00
2017-12-15T00:10:26.829Z,3.90
2017-12-15T00:12:53.129Z,4.00
2017-12-15T00:15:20.114Z,4.10
2017-12-15T00:17:46.386Z,4.10
2017-12-15T00:20:12.633Z,4.10
2017-12-15T00:22:38.894Z,4.30
2017-12-15T00:25:05.145Z,4.10
2017-12-15T00:27:32.157Z,4.20
2017-12-15T00:29:59.305Z,4.10
2017-12-15T00:32:25.613Z,4.10
2017-12-15T00:34:51.895Z,4.10
2017-12-15T00:37:18.141Z,4.20
2017-12-15T00:39:44.401Z,4.10
2017-12-15T00:42:10.746Z,4.10
2017-12-15T00:44:36.991Z,4.30
2017-12-15T00:47:03.384Z,4.40
2017-12-15T00:49:30.375Z,4.50
2017-12-15T00:51:56.661Z,4.50
2017-12-15T00:54:22.905Z,4.30
2017-12-15T00:56:49.189Z,4.10
2017-12-15T00:59:16.205Z,4.10
2017-12-15T01:01:42.470Z,4.10
2017-12-15T01:04:08.778Z,4.20
2017-12-15T01:06:35.073Z,4.20
2017-12-15T01:09:01.326Z,4.20
2017-12-15T01:11:27.633Z,4.30
2017-12-15T01:13:53.902Z,4.00
2017-12-15T01:16:20.917Z,4.00
2017-12-15T01:18:47.337Z,4.00
2017-12-15T01:21:13.566Z,3.40
2017-12-15T01:23:39.805Z,3.80
2017-12-15T01:26:06.197Z,3.80
2017-12-15T01:28:32.492Z,3.80
2017-12-15T01:30:58.773Z,3.90
2017-12-15T01:33:25.079Z,3.90
2017-12-15T01:35:51.342Z,4.20
2017-12-15T01:38:17.577Z,3.70
2017-12-15T01:40:44.645Z,3.80
2017-12-15T01:43:11.670Z,3.70
2017-12-15T01:45:38.677Z,3.70
2017-12-15T01:48:04.938Z,3.70
2017-12-15T01:50:31.221Z,3.90
2017-12-15T01:52:58.226Z,3.90
2017-12-15T01:55:24.509Z,4.30
2017-12-15T01:57:50.777Z,3.80
2017-12-15T02:00:17.008Z,3.80
2017-12-15T02:02:43.280Z,3.90
2017-12-15T02:05:09.574Z,4.00
2017-12-15T02:07:36.581Z,4.00
2017-12-15T02:10:02.829Z,3.70
2017-12-15T02:12:29.077Z,3.90
2017-12-15T02:14:55.332Z,3.80
2017-12-15T02:17:21.600Z,3.70
2017-12-15T02:19:47.921Z,3.90
2017-12-15T02:22:14.166Z,4.00
2017-12-15T02:24:40.427Z,4.10
2017-12-15T02:27:07.428Z,4.10
2017-12-15T02:29:33.656Z,4.10
2017-12-15T02:31:59.926Z,4.10
2017-12-15T02:34:26.186Z,4.20
2017-12-15T02:36:52.447Z,4.20
2017-12-15T02:39:18.688Z,4.10
2017-12-15T02:41:45.694Z,4.00
2017-12-15T02:44:11.952Z,4.00
2017-12-15T02:46:38.223Z,3.90
2017-12-15T02:49:04.463Z,4.00
2017-12-15T02:51:30.705Z,4.00
2017-12-15T02:53:56.930Z,4.10
2017-12-15T02:56:23.214Z,4.00
2017-12-15T02:58:49.478Z,3.90
2017-12-15T03:01:15.724Z,3.90
2017-12-15T03:03:42.054Z,4.00
2017-12-15T03:06:09.071Z,3.90
2017-12-15T03:08:35.329Z,3.90
2017-12-15T03:11:01.594Z,3.90
2017-12-15T03:13:28.577Z,3.80
2017-12-15T03:15:54.841Z,3.80
2017-12-15T03:18:21.097Z,3.80
2017-12-15T03:20:47.818Z,3.90
2017-12-15T03:23:14.555Z,3.70
2017-12-15T03:25:40.844Z,3.70
2017-12-15T03:28:07.107Z,3.70
2017-12-15T03:30:34.163Z,3.80
2017-12-15T03:33:00.483Z,3.60
2017-12-15T03:35:27.534Z,3.90
2017-12-15T03:37:53.781Z,3.90
2017-12-15T03:40:20.793Z,3.90
2017-12-15T03:42:47.050Z,3.90
2017-12-15T03:45:13.354Z,4.00
2017-12-15T03:47:40.342Z,4.30
2017-12-15T03:50:06.597Z,4.30
2017-12-15T03:52:32.850Z,4.10
2017-12-15T03:54:59.290Z,4.00
2017-12-15T03:57:25.552Z,4.10
2017-12-15T03:59:52.522Z,4.00
2017-12-15T04:02:18.774Z,4.00
2017-12-15T04:04:45.013Z,4.20
2017-12-15T04:07:11.310Z,4.30
2017-12-15T04:09:37.542Z,4.20
2017-12-15T04:12:03.794Z,4.10
2017-12-15T04:14:30.043Z,4.00
2017-12-15T04:16:56.288Z,4.10
2017-12-15T04:19:22.538Z,4.10
2017-12-15T04:21:48.788Z,4.30
2017-12-15T04:24:15.041Z,4.40
2017-12-15T04:26:41.329Z,4.80
2017-12-15T04:29:07.585Z,4.20
2017-12-15T04:31:33.846Z,4.20
2017-12-15T04:34:00.845Z,4.10
2017-12-15T04:36:27.158Z,4.10
2017-12-15T04:38:53.418Z,4.10
2017-12-15T04:41:20.437Z,4.10
2017-12-15T04:43:46.720Z,4.10
2017-12-15T04:46:12.993Z,4.10
2017-12-15T04:48:39.261Z,4.10
2017-12-15T04:51:06.289Z,4.20
2017-12-15T04:53:32.547Z,3.50
2017-12-15T04:55:58.830Z,3.60
2017-12-15T04:58:25.067Z,4.40
2017-12-15T05:00:51.409Z,4.30
2017-12-15T05:03:17.644Z,4.20
2017-12-15T05:05:44.672Z,4.20
2017-12-15T05:08:10.939Z,3.50
2017-12-15T05:10:37.173Z,4.30
2017-12-15T05:13:04.179Z,4.40
2017-12-15T05:15:30.434Z,4.40
2017-12-15T05:17:56.686Z,4.40
2017-12-15T05:20:22.982Z,4.30
2017-12-15T05:22:49.270Z,4.40
2017-12-15T05:25:15.587Z,4.40
2017-12-15T05:27:41.846Z,4.70
2017-12-15T05:30:08.122Z,4.40
2017-12-15T05:32:34.402Z,4.60
2017-12-15T05:35:00.681Z,4.50
2017-12-15T05:37:27.012Z,4.40
2017-12-15T05:39:53.288Z,4.30
2017-12-15T05:42:19.561Z,4.50
2017-12-15T05:44:45.843Z,4.50
2017-12-15T05:47:12.108Z,4.60
2017-12-15T05:49:38.396Z,4.60
2017-12-15T05:52:04.692Z,4.70
2017-12-15T05:54:31.902Z,4.70
2017-12-15T05:56:58.212Z,4.70
2017-12-15T05:59:25.363Z,4.70
2017-12-15T06:01:52.375Z,4.70
2017-12-15T06:04:18.658Z,4.70
2017-12-15T06:06:44.951Z,4.70
2017-12-15T06:09:11.984Z,4.70
2017-12-15T06:11:38.282Z,4.70
2017-12-15T06:14:04.633Z,4.90
2017-12-15T06:16:30.948Z,4.90
2017-12-15T06:18:57.215Z,4.90
2017-12-15T06:21:23.462Z,5.00
2017-12-15T06:23:50.488Z,4.90
2017-12-15T06:26:18.222Z,4.70
2017-12-15T06:28:44.501Z,4.70
2017-12-15T06:31:10.775Z,4.90
2017-12-15T06:33:37.069Z,4.90
2017-12-15T06:36:03.358Z,4.80
2017-12-15T06:38:29.656Z,5.00
2017-12-15T06:40:55.945Z,5.00
2017-12-15T06:43:23.022Z,4.90
2017-12-15T06:45:49.308Z,4.90
2017-12-15T06:48:16.332Z,5.00
2017-12-15T06:50:42.606Z,5.00
2017-12-15T06:53:08.869Z,5.10
2017-12-15T06:55:35.085Z,5.20
2017-12-15T06:58:01.351Z,5.30
2017-12-15T07:00:28.345Z,5.20
2017-12-15T07:02:54.574Z,5.20
2017-12-15T07:05:26.873Z,5.30
2017-12-15T07:07:53.112Z,5.20
2017-12-15T07:10:19.407Z,5.30
2017-12-15T07:12:45.657Z,5.10
2017-12-15T07:15:11.922Z,5.20
2017-12-15T07:17:38.915Z,5.40
2017-12-15T07:20:05.181Z,5.30
2017-12-15T07:22:32.185Z,5.20
2017-12-15T07:24:59.245Z,5.30
2017-12-15T07:27:25.538Z,5.30
2017-12-15T07:29:51.779Z,5.80
2017-12-15T07:32:17.998Z,5.20
2017-12-15T07:34:44.259Z,5.30
2017-12-15T07:37:10.503Z,5.30
2017-12-15T07:39:36.728Z,5.40
2017-12-15T07:42:02.966Z,5.30
2017-12-15T07:44:29.985Z,5.30
2017-12-15T07:46:56.257Z,5.30
2017-12-15T07:49:23.329Z,4.90
2017-12-15T07:54:56.161Z,5.40
2017-12-15T07:57:22.239Z,5.40
2017-12-15T07:59:49.068Z,5.50
2017-12-15T08:02:15.104Z,5.50
2017-12-15T08:04:41.174Z,5.50
2017-12-15T08:07:07.253Z,5.50
2017-12-15T08:09:33.305Z,5.20
2017-12-15T08:11:59.374Z,5.50
2017-12-15T08:14:26.206Z,5.20
2017-12-15T08:16:52.276Z,5.10
2017-12-15T08:19:19.102Z,5.00
2017-12-15T08:21:45.167Z,5.00
2017-12-15T08:24:12.021Z,4.90
2017-12-15T08:26:38.865Z,5.10
2017-12-15T08:29:05.725Z,5.10
2017-12-15T08:31:32.595Z,5.20
2017-12-15T08:33:58.668Z,5.20
2017-12-15T08:36:24.805Z,5.20
2017-12-15T08:38:50.898Z,5.20
2017-12-15T08:41:17.978Z,5.30
2017-12-15T08:43:44.033Z,5.50
2017-12-15T08:46:10.133Z,5.40
2017-12-15T08:48:36.938Z,5.50
2017-12-15T08:51:03.021Z,5.50
2017-12-15T08:53:29.845Z,5.60
2017-12-15T08:55:55.908Z,5.60
2017-12-15T08:58:22.820Z,5.60
2017-12-15T09:00:48.909Z,5.70
2017-12-15T09:03:15.716Z,5.70
2017-12-15T09:05:42.541Z,5.50
2017-12-15T09:08:08.651Z,5.50
2017-12-15T09:10:35.465Z,5.70
2017-12-15T09:13:01.761Z,5.70
2017-12-15T09:15:28.622Z,5.50
2017-12-15T09:17:54.764Z,5.50
2017-12-15T09:20:20.944Z,5.70
2017-12-15T09:22:47.061Z,5.40
2017-12-15T09:25:14.681Z,5.50
2017-12-15T09:27:40.747Z,5.50
2017-12-15T09:30:06.825Z,5.60
2017-12-15T09:32:33.001Z,5.60
2017-12-15T09:34:59.065Z,5.60
2017-12-15T09:37:27.497Z,5.70
2017-12-15T09:39:53.606Z,5.70
2017-12-15T09:42:19.683Z,5.80
2017-12-15T09:44:45.742Z,5.70
2017-12-15T09:47:11.802Z,5.70
2017-12-15T09:49:38.641Z,5.80
2017-12-15T09:52:05.458Z,5.70
2017-12-15T09:57:02.522Z,5.90
2017-12-15T09:59:28.572Z,5.80
2017-12-15T10:01:54.627Z,5.80
2017-12-15T10:04:20.707Z,5.80
2017-12-15T10:06:46.761Z,5.90
2017-12-15T10:09:12.815Z,5.70
2017-12-15T10:11:38.873Z,5.80
2017-12-15T10:14:09.461Z,5.90
2017-12-15T10:16:36.598Z,6.20
2017-12-15T10:19:02.648Z,6.20
2017-12-15T10:21:29.445Z,6.10
2017-12-15T10:23:55.493Z,6.50
2017-12-15T10:26:21.537Z,6.00
2017-12-15T10:28:47.616Z,6.10
2017-12-15T10:31:16.314Z,6.30
2017-12-15T10:33:43.149Z,6.50
2017-12-15T10:36:09.233Z,6.50
2017-12-15T10:38:35.285Z,6.50
2017-12-15T10:41:01.344Z,6.60
2017-12-15T10:43:28.183Z,6.70
2017-12-15T10:45:54.240Z,6.70
2017-12-15T10:48:21.054Z,6.60
2017-12-15T10:50:47.110Z,6.60
2017-12-15T10:53:13.726Z,6.70
2017-12-15T10:55:39.773Z,6.80
2017-12-15T10:58:05.834Z,6.80
2017-12-15T11:00:31.894Z,6.50
2017-12-15T11:02:57.962Z,6.80
2017-12-15T11:05:24.041Z,6.80
2017-12-15T11:07:50.101Z,7.00
2017-12-15T11:10:16.178Z,7.20
2017-12-15T11:12:44.899Z,7.20
2017-12-15T11:15:11.125Z,7.00
2017-12-15T11:17:37.410Z,7.10
2017-12-15T11:20:04.424Z,7.50
2017-12-15T11:22:30.792Z,7.50
2017-12-15T11:24:57.037Z,7.60
2017-12-15T11:27:23.294Z,8.00
2017-12-15T11:29:54.615Z,7.60
2017-12-15T11:32:20.874Z,7.40
2017-12-15T11:34:47.152Z,7.40
2017-12-15T11:37:14.290Z,7.70
2017-12-15T11:39:40.560Z,7.60
2017-12-15T11:42:06.797Z,7.50
2017-12-15T11:44:33.070Z,7.50
2017-12-15T11:47:00.065Z,7.30
2017-12-15T11:49:28.040Z,7.30
2017-12-15T11:51:54.385Z,7.50
2017-12-15T11:54:21.398Z,7.60
2017-12-15T11:56:47.661Z,7.60
2017-12-15T11:59:13.932Z,7.70
2017-12-15T12:01:40.954Z,7.70
2017-12-15T12:04:07.197Z,7.70
2017-12-15T12:06:33.508Z,7.80
2017-12-15T12:09:02.354Z,7.70
2017-12-15T12:11:28.605Z,7.90
2017-12-15T12:13:54.995Z,8.00
2017-12-15T12:16:21.254Z,7.30
2017-12-15T12:18:48.278Z,7.80
2017-12-15T12:21:14.670Z,7.80
2017-12-15T12:23:40.916Z,7.60
2017-12-15T12:26:10.055Z,7.60
2017-12-15T12:28:38.489Z,7.50
2017-12-15T12:31:04.766Z,7.50
2017-12-15T12:33:31.054Z,7.60
2017-12-15T12:35:57.385Z,7.90
2017-12-15T12:38:24.412Z,7.90
2017-12-15T12:40:50.715Z,7.90
2017-12-15T12:43:20.481Z,8.00
2017-12-15T12:45:46.540Z,7.90
2017-12-15T12:48:12.650Z,7.70
2017-12-15T12:50:39.630Z,7.80
2017-12-15T12:53:05.696Z,7.70
2017-12-15T12:55:31.921Z,7.80
2017-12-15T12:57:58.282Z,7.70
2017-12-15T13:00:24.560Z,7.90
2017-12-15T13:02:53.307Z,7.90
2017-12-15T13:05:20.309Z,7.70
2017-12-15T13:07:46.563Z,7.60
2017-12-15T13:10:12.825Z,7.50
2017-12-15T13:12:39.058Z,7.10
2017-12-15T13:15:05.351Z,7.40
2017-12-15T13:17:31.607Z,7.60
2017-12-15T13:19:57.852Z,7.70
2017-12-15T13:22:28.447Z,7.70
2017-12-15T13:24:54.743Z,7.80
2017-12-15T13:27:21.057Z,8.00
2017-12-15T13:29:47.342Z,7.80
2017-12-15T13:32:13.609Z,7.70
2017-12-15T13:34:39.900Z,7.80
2017-12-15T13:37:06.166Z,7.70
2017-12-15T13:39:32.456Z,7.50
2017-12-15T13:42:01.822Z,7.40
2017-12-15T13:44:28.119Z,7.30
2017-12-15T13:46:54.381Z,6.70
2017-12-15T13:49:20.672Z,7.00
2017-12-15T13:51:47.076Z,7.00
2017-12-15T13:54:14.348Z,7.00
2017-12-15T13:56:40.653Z,6.90
2017-12-15T13:59:10.518Z,6.90
2017-12-15T14:01:36.749Z,6.90
2017-12-15T14:04:03.761Z,6.90
2017-12-15T14:06:30.106Z,6.90
2017-12-15T14:08:56.618Z,7.00
2017-12-15T14:11:22.944Z,7.00
2017-12-15T14:16:20.514Z,6.90
2017-12-15T14:18:46.816Z,6.60
2017-12-15T14:21:13.098Z,6.80
2017-12-15T14:23:40.129Z,6.80
2017-12-15T14:26:06.369Z,6.80
2017-12-15T14:28:32.627Z,6.80
2017-12-15T14:30:58.900Z,6.80
2017-12-15T14:33:28.884Z,6.90
2017-12-15T14:35:55.293Z,7.00
2017-12-15T14:38:22.309Z,6.90
2017-12-15T14:40:48.775Z,6.90
2017-12-15T14:43:15.062Z,7.10
2017-12-15T14:45:41.317Z,6.80
2017-12-15T14:48:08.357Z,6.90
2017-12-15T14:50:38.192Z,6.90
2017-12-15T14:53:04.432Z,6.80
2017-12-15T14:55:30.729Z,7.00
2017-12-15T14:57:57.069Z,7.10
2017-12-15T15:00:23.395Z,7.00
2017-12-15T15:02:49.671Z,6.90
2017-12-15T15:05:15.939Z,6.90
2017-12-15T15:07:42.256Z,7.00
2017-12-15T15:12:37.385Z,7.10
2017-12-15T15:15:03.645Z,7.10
2017-12-15T15:17:30.701Z,6.70
2017-12-15T15:19:57.033Z,6.60
2017-12-15T15:22:23.349Z,6.80
2017-12-15T15:24:50.017Z,6.90
2017-12-15T15:27:16.434Z,6.90
2017-12-15T15:29:43.598Z,7.10
2017-12-15T15:32:09.937Z,7.10
2017-12-15T15:34:36.622Z,7.20
2017-12-15T15:37:02.941Z,6.80
2017-12-15T15:39:29.227Z,7.30
2017-12-15T15:41:56.330Z,7.20
2017-12-15T15:44:22.598Z,7.20
2017-12-15T15:46:48.872Z,7.20
2017-12-15T15:49:15.817Z,7.20
2017-12-15T15:51:42.825Z,7.10
2017-12-15T15:54:09.112Z,7.00
2017-12-15T15:56:35.442Z,6.40
2017-12-15T15:59:01.706Z,7.20
2017-12-15T16:01:28.766Z,6.90
2017-12-15T16:03:55.836Z,7.00
2017-12-15T16:06:22.861Z,7.00
2017-12-15T16:08:49.245Z,7.00
2017-12-15T16:11:15.518Z,7.00
2017-12-15T16:13:41.821Z,7.00
2017-12-15T16:16:08.645Z,7.10
2017-12-15T16:18:34.931Z,7.10
2017-12-15T16:21:01.318Z,7.10
2017-12-15T16:23:28.372Z,6.90
2017-12-15T16:25:55.369Z,7.00
2017-12-15T16:28:22.171Z,7.00
2017-12-15T16:30:49.228Z,7.00
2017-12-15T16:33:15.663Z,7.00
2017-12-15T16:35:42.046Z,7.10
2017-12-15T16:38:08.382Z,7.10
2017-12-15T16:40:34.686Z,7.10
2017-12-15T16:43:00.999Z,7.20
2017-12-15T16:45:27.332Z,6.90
2017-12-15T16:47:53.725Z,7.00
2017-12-15T16:50:20.772Z,7.10
2017-12-15T16:52:47.048Z,7.10
2017-12-15T16:55:13.492Z,7.10
2017-12-15T16:57:40.529Z,7.00
2017-12-15T17:00:06.807Z,7.00
2017-12-15T17:02:33.081Z,7.20
2017-12-15T17:04:59.349Z,7.20
2017-12-15T17:07:25.646Z,7.20
2017-12-15T17:09:52.689Z,6.90
2017-12-15T17:12:26.044Z,6.90
2017-12-15T17:14:52.376Z,6.90
2017-12-15T17:17:19.409Z,6.60
2017-12-15T17:19:45.718Z,6.60
2017-12-15T17:22:12.038Z,6.60
2017-12-15T17:24:39.169Z,6.80
2017-12-15T17:27:05.482Z,6.80
2017-12-15T17:29:33.945Z,6.80
2017-12-15T17:32:00.961Z,6.80
2017-12-15T17:34:27.210Z,6.80
2017-12-15T17:36:57.289Z,6.80
2017-12-15T17:39:23.578Z,6.80
2017-12-15T17:41:49.852Z,6.80
2017-12-15T17:44:16.118Z,6.90
2017-12-15T17:46:49.892Z,6.90
2017-12-15T17:49:16.004Z,6.90
2017-12-15T17:51:42.069Z,7.00
2017-12-15T17:54:08.134Z,7.10
2017-12-15T17:56:34.220Z,7.40
2017-12-15T17:59:01.258Z,7.20
2017-12-15T18:01:28.065Z,7.00
2017-12-15T18:03:54.194Z,7.00
2017-12-15T18:06:22.581Z,7.20
2017-12-15T18:08:48.857Z,6.60
2017-12-15T18:11:15.177Z,6.80
2017-12-15T18:13:41.522Z,6.70
2017-12-15T18:16:07.817Z,6.70
2017-12-15T18:18:34.086Z,6.80
2017-12-15T18:21:00.357Z,6.80
2017-12-15T18:23:26.821Z,6.70
2017-12-15T18:26:00.072Z,6.70
2017-12-15T18:28:26.329Z,6.60
2017-12-15T18:30:52.644Z,6.50
2017-12-15T18:33:18.921Z,6.40
2017-12-15T18:35:45.103Z,6.10
2017-12-15T18:38:11.385Z,6.00
2017-12-15T18:40:37.653Z,6.20
2017-12-15T18:43:03.915Z,6.30
2017-12-15T18:45:33.586Z,6.60
2017-12-15T18:47:59.877Z,6.40
2017-12-15T18:50:26.122Z,6.50
2017-12-15T18:52:52.358Z,6.50
2017-12-15T18:55:18.645Z,6.70
2017-12-15T18:57:45.698Z,6.80
2017-12-15T19:00:12.078Z,6.70
2017-12-15T19:02:43.279Z,6.90
2017-12-15T19:05:10.442Z,7.00
2017-12-15T19:07:36.715Z,6.90
2017-12-15T19:10:02.995Z,6.90
2017-12-15T19:12:30.078Z,6.70
2017-12-15T19:14:56.319Z,6.70
2017-12-15T19:17:29.131Z,6.60
2017-12-15T19:19:56.221Z,6.80
2017-12-15T19:22:22.542Z,6.80
2017-12-15T19:24:49.147Z,6.90
2017-12-15T19:27:16.498Z,7.10
2017-12-15T19:29:42.789Z,6.90
2017-12-15T19:32:09.826Z,6.90
2017-12-15T19:34:42.719Z,6.90
2017-12-15T19:37:08.977Z,6.70
2017-12-15T19:39:35.246Z,6.70
2017-12-15T19:42:01.592Z,6.40
2017-12-15T19:44:27.881Z,6.30
2017-12-15T19:46:54.173Z,6.00
2017-12-15T19:49:25.641Z,5.60
2017-12-15T19:51:51.959Z,5.60
2017-12-15T19:54:18.276Z,5.80
2017-12-15T19:56:44.553Z,6.10
2017-12-15T19:59:10.864Z,6.30
2017-12-15T20:01:37.154Z,6.50
2017-12-15T20:04:03.413Z,6.60
2017-12-15T20:06:30.433Z,6.80
2017-12-15T20:09:00.781Z,6.80
2017-12-15T20:11:27.073Z,6.90
2017-12-15T20:13:54.128Z,7.00
2017-12-15T20:16:20.445Z,7.00
2017-12-15T20:18:46.805Z,6.80
2017-12-15T20:21:13.079Z,6.70
2017-12-15T20:23:39.454Z,6.80
2017-12-15T20:26:05.782Z,6.70
2017-12-15T20:28:38.246Z,6.50
2017-12-15T20:31:04.383Z,6.30
2017-12-15T20:33:30.696Z,6.40
2017-12-15T20:35:57.064Z,6.30
2017-12-15T20:38:23.450Z,6.40
2017-12-15T20:40:49.739Z,6.50
2017-12-15T20:43:16.111Z,6.70
2017-12-15T20:45:47.590Z,6.70
2017-12-15T20:48:13.939Z,6.70
2017-12-15T20:50:40.185Z,6.70
2017-12-15T20:53:06.490Z,6.80
2017-12-15T20:55:33.525Z,6.90
2017-12-15T20:57:59.800Z,6.90
2017-12-15T21:00:26.832Z,6.40
2017-12-15T21:02:55.740Z,6.40
2017-12-15T21:05:22.157Z,6.60
2017-12-15T21:07:48.459Z,6.70
2017-12-15T21:10:14.694Z,6.80
2017-12-15T21:12:40.947Z,6.80
2017-12-15T21:15:07.245Z,6.40
2017-12-15T21:17:33.557Z,6.10
2017-12-15T21:22:31.053Z,5.90
2017-12-15T21:24:57.322Z,5.60
2017-12-15T21:27:23.663Z,5.70
2017-12-15T21:29:50.719Z,5.80
2017-12-15T21:32:17.022Z,5.80
2017-12-15T21:34:43.278Z,6.00
2017-12-15T21:37:09.580Z,6.20
2017-12-15T21:39:37.421Z,6.10
2017-12-15T21:42:03.706Z,6.10
2017-12-15T21:44:29.993Z,6.50
2017-12-15T21:46:56.226Z,6.20
2017-12-15T21:49:22.544Z,6.20
2017-12-15T21:51:49.041Z,6.10
2017-12-15T21:54:15.355Z,6.30
2017-12-15T21:56:41.711Z,6.00
2017-12-15T21:59:12.511Z,6.00
2017-12-15T22:01:38.816Z,5.90
2017-12-15T22:04:06.005Z,5.80
2017-12-15T22:06:32.273Z,5.70
2017-12-15T22:08:58.556Z,5.70
2017-12-15T22:11:24.937Z,5.70
2017-12-15T22:13:51.209Z,5.60
2017-12-15T22:16:18.225Z,5.50
2017-12-15T22:18:44.521Z,5.50
2017-12-15T22:21:10.806Z,5.40
2017-12-15T22:23:37.121Z,5.40
2017-12-15T22:26:03.446Z,5.70
2017-12-15T22:28:29.796Z,5.30
2017-12-15T22:30:56.215Z,5.10
2017-12-15T22:33:22.631Z,5.10
2017-12-15T22:35:48.914Z,5.00
2017-12-15T22:38:15.415Z,5.00
2017-12-15T22:40:41.670Z,5.00
2017-12-15T22:43:07.953Z,4.90
2017-12-15T22:45:34.966Z,4.80
2017-12-15T22:48:01.528Z,4.80
2017-12-15T22:50:27.802Z,4.70
2017-12-15T22:52:54.133Z,4.60
2017-12-15T22:55:20.385Z,4.20
2017-12-15T22:57:47.397Z,4.60
2017-12-15T23:00:13.692Z,4.60
2017-12-15T23:02:39.867Z,4.70
2017-12-15T23:05:06.177Z,4.70
2017-12-15T23:07:32.515Z,4.20
2017-12-15T23:09:59.522Z,4.80
2017-12-15T23:12:26.105Z,4.80
2017-12-15T23:14:52.378Z,4.90
2017-12-15T23:17:18.670Z,4.70
2017-12-15T23:19:46.010Z,4.90
2017-12-15T23:22:12.308Z,4.90
2017-12-15T23:24:38.644Z,5.10
2017-12-15T23:27:04.985Z,5.20
2017-12-15T23:29:31.367Z,5.30
2017-12-15T23:31:57.649Z,5.40
2017-12-15T23:34:24.701Z,5.50
2017-12-15T23:36:51.020Z,5.50
2017-12-15T23:39:17.337Z,5.70
2017-12-15T23:41:43.681Z,5.60
2017-12-15T23:44:09.985Z,5.60
2017-12-15T23:46:36.267Z,5.60
2017-12-15T23:49:02.837Z,5.70
2017-12-15T23:51:29.114Z,5.80
2017-12-15T23:53:55.413Z,5.70
2017-12-15T23:59:24.786Z,5.70
